createdAt,value
2023-03-12T00:00:11.748Z,2.83
2023-03-12T00:02:41.207Z,3.73
2023-03-12T00:05:09.511Z,3.50
2023-03-12T00:07:38.753Z,3.50
2023-03-12T00:10:09.717Z,2.60
2023-03-12T00:12:37.823Z,3.60
2023-03-12T00:15:06.468Z,2.57
2023-03-12T00:17:34.234Z,2.43
2023-03-12T00:20:01.841Z,3.40
2023-03-12T00:22:29.546Z,3.40
2023-03-12T00:24:58.239Z,3.30
2023-03-12T00:27:28.604Z,3.37
2023-03-12T00:29:56.361Z,2.47
2023-03-12T00:32:24.698Z,3.17
2023-03-12T00:34:52.544Z,3.03
2023-03-12T00:37:20.305Z,2.33
2023-03-12T00:39:47.993Z,2.53
2023-03-12T00:42:15.993Z,2.20
2023-03-12T00:44:45.442Z,2.60
2023-03-12T00:47:13.972Z,2.23
2023-03-12T00:49:41.761Z,2.70
2023-03-12T00:52:09.570Z,2.83
2023-03-12T00:54:37.531Z,2.63
2023-03-12T00:57:05.677Z,2.47
2023-03-12T00:59:33.640Z,2.03
2023-03-12T01:02:02.660Z,3.10
2023-03-12T01:04:30.371Z,2.80
2023-03-12T01:06:58.192Z,2.27
2023-03-12T01:09:25.959Z,2.40
2023-03-12T01:11:55.687Z,2.23
2023-03-12T01:14:24.182Z,2.33
2023-03-12T01:16:53.849Z,2.70
2023-03-12T01:19:22.944Z,2.13
2023-03-12T01:21:50.605Z,2.00
2023-03-12T01:24:18.271Z,2.47
2023-03-12T01:26:45.951Z,1.83
2023-03-12T01:29:13.647Z,1.90
2023-03-12T01:31:41.386Z,3.20
2023-03-12T01:34:12.365Z,3.23
2023-03-12T01:36:41.769Z,2.57
2023-03-12T01:39:09.502Z,3.90
2023-03-12T01:41:37.384Z,4.00
2023-03-12T01:44:05.661Z,4.17
2023-03-12T01:46:34.967Z,3.23
2023-03-12T01:49:08.793Z,3.77
2023-03-12T01:51:41.048Z,4.13
2023-03-12T01:54:14.122Z,2.27
2023-03-12T01:56:42.893Z,2.50
2023-03-12T01:59:18.848Z,1.70
2023-03-12T02:01:47.243Z,2.93
2023-03-12T02:04:17.083Z,1.90
2023-03-12T02:06:50.099Z,1.43
2023-03-12T02:09:21.456Z,2.20
2023-03-12T02:11:49.193Z,1.23
2023-03-12T02:14:17.562Z,1.43
2023-03-12T02:16:46.200Z,2.00
2023-03-12T02:19:19.787Z,2.17
2023-03-12T02:21:47.454Z,1.87
2023-03-12T02:24:23.785Z,2.50
2023-03-12T02:26:52.910Z,2.23
2023-03-12T02:29:20.984Z,2.00
2023-03-12T02:31:54.509Z,3.03
2023-03-12T02:34:22.311Z,2.43
2023-03-12T02:36:50.606Z,2.83
2023-03-12T02:39:19.673Z,3.57
2023-03-12T02:41:53.596Z,2.30
2023-03-12T02:44:25.282Z,2.13
2023-03-12T02:46:55.493Z,2.47
2023-03-12T02:49:25.947Z,2.63
2023-03-12T02:51:54.143Z,2.63
2023-03-12T02:54:22.800Z,2.70
2023-03-12T02:56:51.091Z,2.20
2023-03-12T02:59:20.697Z,1.83
2023-03-12T03:01:54.465Z,1.87
2023-03-12T03:04:22.375Z,2.90
2023-03-12T03:06:50.529Z,2.87
2023-03-12T03:09:19.256Z,2.27
2023-03-12T03:11:47.016Z,2.40
2023-03-12T03:14:14.657Z,2.27
2023-03-12T03:16:42.289Z,2.00
2023-03-12T03:19:11.358Z,2.97
2023-03-12T03:21:39.418Z,2.10
2023-03-12T03:24:07.555Z,2.53
2023-03-12T03:26:35.243Z,2.33
2023-03-12T03:29:02.968Z,2.90
2023-03-12T03:31:31.745Z,2.17
2023-03-12T03:33:59.641Z,2.13
2023-03-12T03:36:28.703Z,2.23
2023-03-12T03:38:56.388Z,2.63
2023-03-12T03:41:24.476Z,2.27
2023-03-12T03:43:52.116Z,1.90
2023-03-12T03:46:19.794Z,2.30
2023-03-12T03:48:47.651Z,2.40
2023-03-12T03:51:15.525Z,2.50
2023-03-12T03:53:44.623Z,2.37
2023-03-12T03:56:14.667Z,2.43
2023-03-12T03:58:42.837Z,2.50
2023-03-12T04:01:10.958Z,2.23
2023-03-12T04:03:38.615Z,2.47
2023-03-12T04:06:08.182Z,2.50
2023-03-12T04:08:37.465Z,2.40
2023-03-12T04:11:10.268Z,3.00
2023-03-12T04:13:38.075Z,2.70
2023-03-12T04:16:06.433Z,2.60
2023-03-12T04:18:35.984Z,2.27
2023-03-12T04:21:03.800Z,2.30
2023-03-12T04:23:31.487Z,2.57
2023-03-12T04:25:59.563Z,2.73
2023-03-12T04:28:28.616Z,2.63
2023-03-12T04:30:56.845Z,2.67
2023-03-12T04:33:24.524Z,2.83
2023-03-12T04:35:52.857Z,2.13
2023-03-12T04:38:21.334Z,3.03
2023-03-12T04:40:57.815Z,2.97
2023-03-12T04:43:25.530Z,2.80
2023-03-12T04:45:54.544Z,3.20
2023-03-12T04:48:22.221Z,2.33
2023-03-12T04:50:50.502Z,2.60
2023-03-12T04:53:18.415Z,4.27
2023-03-12T04:55:46.162Z,3.67
2023-03-12T04:58:13.946Z,2.60
2023-03-12T05:00:42.143Z,2.60
2023-03-12T05:03:11.159Z,2.93
2023-03-12T05:05:38.840Z,2.80
2023-03-12T05:08:07.004Z,2.67
2023-03-12T05:10:35.107Z,2.83
2023-03-12T05:13:02.737Z,3.23
2023-03-12T05:15:30.490Z,2.57
2023-03-12T05:17:58.163Z,2.63
2023-03-12T05:20:27.097Z,3.10
2023-03-12T05:22:54.736Z,2.60
2023-03-12T05:25:22.372Z,2.57
2023-03-12T05:27:50.067Z,3.03
2023-03-12T05:30:18.315Z,2.03
2023-03-12T05:32:46.532Z,2.30
2023-03-12T05:35:14.498Z,2.40
2023-03-12T05:37:43.434Z,2.40
2023-03-12T05:40:12.600Z,3.10
2023-03-12T05:42:40.337Z,3.03
2023-03-12T05:45:09.248Z,3.00
2023-03-12T05:47:36.993Z,2.53
2023-03-12T05:50:05.380Z,2.97
2023-03-12T05:52:33.041Z,2.60
2023-03-12T05:55:02.145Z,2.33
2023-03-12T05:57:30.407Z,2.47
2023-03-12T05:59:57.998Z,3.10
2023-03-12T06:02:25.724Z,2.37
2023-03-12T06:04:53.454Z,3.10
2023-03-12T06:07:21.158Z,2.50
2023-03-12T06:09:48.823Z,2.87
2023-03-12T06:12:17.730Z,3.40
2023-03-12T06:14:45.512Z,3.07
2023-03-12T06:17:13.338Z,2.43
2023-03-12T06:19:40.954Z,2.80
2023-03-12T06:22:08.613Z,3.10
2023-03-12T06:24:36.243Z,3.27
2023-03-12T06:27:04.093Z,2.57
2023-03-12T06:29:33.117Z,2.80
2023-03-12T06:32:00.798Z,4.00
2023-03-12T06:34:28.446Z,2.67
2023-03-12T06:36:56.162Z,2.70
2023-03-12T06:39:23.875Z,2.13
2023-03-12T06:41:52.563Z,2.50
2023-03-12T06:44:20.256Z,3.40
2023-03-12T06:46:49.365Z,2.80
2023-03-12T06:49:16.965Z,3.27
2023-03-12T06:51:44.592Z,2.37
2023-03-12T06:54:12.299Z,2.90
2023-03-12T06:56:40.122Z,2.53
2023-03-12T06:59:08.073Z,2.50
2023-03-12T07:01:35.865Z,2.60
2023-03-12T07:04:04.938Z,2.67
2023-03-12T07:06:32.743Z,2.93
2023-03-12T07:09:00.481Z,2.90
2023-03-12T07:11:28.112Z,2.57
2023-03-12T07:13:55.886Z,3.20
2023-03-12T07:16:23.588Z,2.83
2023-03-12T07:18:51.230Z,2.43
2023-03-12T07:21:22.729Z,2.20
2023-03-12T07:23:50.782Z,3.13
2023-03-12T07:26:19.243Z,2.93
2023-03-12T07:28:47.305Z,2.87
2023-03-12T07:31:14.951Z,3.00
2023-03-12T07:33:42.695Z,3.20
2023-03-12T07:36:10.573Z,2.57
2023-03-12T07:38:39.683Z,2.03
2023-03-12T07:41:07.752Z,2.33
2023-03-12T07:43:35.540Z,3.13
2023-03-12T07:46:03.577Z,2.83
2023-03-12T07:48:31.235Z,2.50
2023-03-12T07:50:59.117Z,2.30
2023-03-12T07:53:26.720Z,2.53
2023-03-12T07:55:56.148Z,3.40
2023-03-12T07:58:24.045Z,2.17
2023-03-12T08:00:53.524Z,3.10
2023-03-12T08:03:21.397Z,2.03
2023-03-12T08:05:57.261Z,2.40
2023-03-12T08:08:27.416Z,2.40
2023-03-12T08:10:56.666Z,2.40
2023-03-12T08:13:24.582Z,1.40
2023-03-12T08:15:53.241Z,2.63
2023-03-12T08:18:21.540Z,3.43
2023-03-12T08:20:51.141Z,3.80
2023-03-12T08:23:19.179Z,4.10
2023-03-12T08:25:49.237Z,4.20
2023-03-12T08:28:19.468Z,3.73
2023-03-12T08:30:48.654Z,4.43
2023-03-12T08:33:16.513Z,3.70
2023-03-12T08:35:44.533Z,2.43
2023-03-12T08:38:13.024Z,2.37
2023-03-12T08:40:40.830Z,2.87
2023-03-12T08:43:08.906Z,2.40
2023-03-12T08:45:38.619Z,2.30
2023-03-12T08:48:07.612Z,2.87
2023-03-12T08:50:35.240Z,3.67
2023-03-12T08:53:02.887Z,2.97
2023-03-12T08:55:30.644Z,2.23
2023-03-12T08:57:59.687Z,3.20
2023-03-12T09:00:27.322Z,3.80
2023-03-12T09:02:58.257Z,2.80
2023-03-12T09:05:28.066Z,1.80
2023-03-12T09:07:55.727Z,1.70
2023-03-12T09:10:23.493Z,2.10
2023-03-12T09:12:51.110Z,2.07
2023-03-12T09:15:18.977Z,2.17
2023-03-12T09:17:47.900Z,1.97
2023-03-12T09:20:16.941Z,1.47
2023-03-12T09:22:44.601Z,2.03
2023-03-12T09:25:13.142Z,2.07
2023-03-12T09:27:42.488Z,2.00
2023-03-12T09:30:12.882Z,1.63
2023-03-12T09:32:40.584Z,2.07
2023-03-12T09:35:09.932Z,2.50
2023-03-12T09:37:39.114Z,2.00
2023-03-12T09:40:08.656Z,2.00
2023-03-12T09:42:42.370Z,2.30
2023-03-12T09:45:17.571Z,2.47
2023-03-12T09:47:50.137Z,1.40
2023-03-12T09:50:26.681Z,2.30
2023-03-12T09:53:00.352Z,2.33
2023-03-12T09:55:32.321Z,3.83
2023-03-12T09:58:00.081Z,3.73
2023-03-12T10:00:31.127Z,1.73
2023-03-12T10:03:23.957Z,1.70
2023-03-12T10:06:04.056Z,1.87
2023-03-12T10:08:45.096Z,1.60
2023-03-12T10:11:24.057Z,2.53
2023-03-12T10:14:06.068Z,2.30
2023-03-12T10:16:53.756Z,3.20
2023-03-12T10:19:38.028Z,2.10
2023-03-12T10:22:15.308Z,1.83
2023-03-12T10:24:57.505Z,2.00
2023-03-12T10:27:29.440Z,1.60
2023-03-12T10:29:58.560Z,1.77
2023-03-12T10:32:32.139Z,2.20
2023-03-12T10:35:03.258Z,2.07
2023-03-12T10:37:38.297Z,2.43
2023-03-12T10:40:13.458Z,2.50
2023-03-12T10:42:41.143Z,3.77
2023-03-12T10:45:22.000Z,4.43
2023-03-12T10:47:52.949Z,3.77
2023-03-12T10:50:23.464Z,3.90
2023-03-12T10:52:54.576Z,3.13
2023-03-12T10:55:27.322Z,2.83
2023-03-12T10:57:55.379Z,2.93
2023-03-12T11:00:26.180Z,2.00
2023-03-12T11:03:00.363Z,1.63
2023-03-12T11:05:31.092Z,2.13
2023-03-12T11:08:01.862Z,2.40
2023-03-12T11:10:43.882Z,3.33
2023-03-12T11:13:24.891Z,2.43
2023-03-12T11:15:53.885Z,1.77
2023-03-12T11:18:25.397Z,2.27
2023-03-12T11:20:56.443Z,3.30
2023-03-12T11:23:27.599Z,2.43
2023-03-12T11:25:59.297Z,1.83
2023-03-12T11:28:36.447Z,2.37
2023-03-12T11:31:07.618Z,1.77
2023-03-12T11:33:35.452Z,2.37
2023-03-12T11:36:25.112Z,2.40
2023-03-12T11:39:04.275Z,2.57
2023-03-12T11:41:49.400Z,2.80
2023-03-12T11:44:26.196Z,2.57
2023-03-12T11:47:07.672Z,2.90
2023-03-12T11:49:55.178Z,3.20
2023-03-12T11:52:33.378Z,1.93
2023-03-12T11:55:16.406Z,2.93
2023-03-12T11:57:58.813Z,2.93
2023-03-12T12:00:32.244Z,2.83
2023-03-12T12:03:24.940Z,2.20
2023-03-12T12:06:00.519Z,2.80
2023-03-12T12:08:38.970Z,3.07
2023-03-12T12:11:15.588Z,2.57
2023-03-12T12:13:58.531Z,1.93
2023-03-12T12:16:52.354Z,3.77
2023-03-12T12:19:29.211Z,2.80
2023-03-12T12:22:14.995Z,2.90
2023-03-12T12:25:02.325Z,3.80
2023-03-12T12:27:39.921Z,3.07
2023-03-12T12:30:20.637Z,3.50
2023-03-12T12:33:06.257Z,2.70
2023-03-12T12:35:37.994Z,3.27
2023-03-12T12:38:14.203Z,3.20
2023-03-12T12:40:45.322Z,3.17
2023-03-12T12:43:27.910Z,2.87
2023-03-12T12:46:04.198Z,2.90
2023-03-12T12:48:36.313Z,4.00
2023-03-12T12:51:08.774Z,4.00
2023-03-12T12:53:44.870Z,3.97
2023-03-12T12:56:20.608Z,4.23
2023-03-12T12:59:04.994Z,4.00
2023-03-12T13:01:36.514Z,2.17
2023-03-12T13:04:12.220Z,4.10
2023-03-12T13:06:57.978Z,3.90
2023-03-12T13:09:38.406Z,3.93
2023-03-12T13:12:15.628Z,4.50
2023-03-12T13:14:44.672Z,4.30
2023-03-12T13:17:28.913Z,5.77
2023-03-12T13:20:10.798Z,4.43
2023-03-12T13:22:54.560Z,3.90
2023-03-12T13:25:31.401Z,4.17
2023-03-12T13:28:18.018Z,3.93
2023-03-12T13:30:51.339Z,3.30
2023-03-12T13:33:37.000Z,3.93
2023-03-12T13:36:11.302Z,4.73
2023-03-12T13:38:52.882Z,4.53
2023-03-12T13:41:32.447Z,4.33
2023-03-12T13:44:00.563Z,4.27
2023-03-12T13:46:41.147Z,4.47
2023-03-12T13:49:17.065Z,3.73
2023-03-12T13:51:48.063Z,2.87
2023-03-12T13:54:19.966Z,3.73
2023-03-12T13:56:57.855Z,2.63
2023-03-12T13:59:28.110Z,3.63
2023-03-12T14:02:00.492Z,2.90
2023-03-12T14:04:35.972Z,4.03
2023-03-12T14:07:29.919Z,4.17
2023-03-12T14:10:08.960Z,4.27
2023-03-12T14:12:45.019Z,3.70
2023-03-12T14:15:25.881Z,4.93
2023-03-12T14:17:58.005Z,3.53
2023-03-12T14:20:30.705Z,3.50
2023-03-12T14:23:01.841Z,1.77
2023-03-12T14:25:38.829Z,4.57
2023-03-12T14:28:14.513Z,4.37
2023-03-12T14:30:48.456Z,3.60
2023-03-12T14:33:17.571Z,3.47
2023-03-12T14:35:52.171Z,4.17
2023-03-12T14:38:26.272Z,2.90
2023-03-12T14:40:58.782Z,3.90
2023-03-12T14:43:29.377Z,2.57
2023-03-12T14:45:58.592Z,3.20
2023-03-12T14:48:30.757Z,3.43
2023-03-12T14:51:04.189Z,2.87
2023-03-12T14:53:35.746Z,3.83
2023-03-12T14:56:07.453Z,3.77
2023-03-12T14:58:36.670Z,2.47
2023-03-12T15:01:08.383Z,2.73
2023-03-12T15:03:43.531Z,3.07
2023-03-12T15:06:18.730Z,3.17
2023-03-12T15:08:46.730Z,2.80
2023-03-12T15:11:15.409Z,3.03
2023-03-12T15:13:47.247Z,2.90
2023-03-12T15:16:15.151Z,2.97
2023-03-12T15:18:43.757Z,3.10
2023-03-12T15:21:11.721Z,2.20
2023-03-12T15:23:45.530Z,2.77
2023-03-12T15:26:16.705Z,3.00
2023-03-12T15:28:45.119Z,2.63
2023-03-12T15:31:15.689Z,2.97
2023-03-12T15:33:44.585Z,2.60
2023-03-12T15:36:26.941Z,2.80
2023-03-12T15:39:00.317Z,3.63
2023-03-12T15:41:30.796Z,3.77
2023-03-12T15:44:00.768Z,3.23
2023-03-12T15:46:29.673Z,4.13
2023-03-12T15:49:00.104Z,5.20
2023-03-12T15:51:31.695Z,4.03
2023-03-12T15:54:07.494Z,5.10
2023-03-12T15:56:36.807Z,4.13
2023-03-12T15:59:20.833Z,3.97
2023-03-12T16:01:49.833Z,4.30
2023-03-12T16:04:19.407Z,4.90
2023-03-12T16:06:48.827Z,3.13
2023-03-12T16:09:20.859Z,4.47
2023-03-12T16:11:49.386Z,4.73
2023-03-12T16:14:21.125Z,2.83
2023-03-12T16:16:49.036Z,3.63
2023-03-12T16:19:19.137Z,5.47
2023-03-12T16:21:46.931Z,5.57
2023-03-12T16:24:16.448Z,4.63
2023-03-12T16:26:50.098Z,6.17
2023-03-12T16:29:19.533Z,4.57
2023-03-12T16:31:52.467Z,5.37
2023-03-12T16:34:20.214Z,4.73
2023-03-12T16:36:48.050Z,5.50
2023-03-12T16:39:17.750Z,4.93
2023-03-12T16:41:48.234Z,4.83
2023-03-12T16:44:20.823Z,6.27
2023-03-12T16:46:48.637Z,6.67
2023-03-12T16:49:20.798Z,6.80
2023-03-12T16:51:48.993Z,5.27
2023-03-12T16:54:16.678Z,6.27
2023-03-12T16:56:47.820Z,6.80
2023-03-12T16:59:24.655Z,5.33
2023-03-12T17:01:52.503Z,4.47
2023-03-12T17:04:20.469Z,5.50
2023-03-12T17:06:48.212Z,6.00
2023-03-12T17:09:15.800Z,4.77
2023-03-12T17:11:43.632Z,5.53
2023-03-12T17:14:19.660Z,5.77
2023-03-12T17:16:47.271Z,6.00
2023-03-12T17:19:15.132Z,5.33
2023-03-12T17:21:44.010Z,6.03
2023-03-12T17:24:13.875Z,6.73
2023-03-12T17:26:41.642Z,7.30
2023-03-12T17:29:09.272Z,7.37
2023-03-12T17:31:38.391Z,8.47
2023-03-12T17:34:06.404Z,9.63
2023-03-12T17:36:37.014Z,10.37
2023-03-12T17:39:04.753Z,12.67
2023-03-12T17:41:32.961Z,10.57
2023-03-12T17:44:02.102Z,9.13
2023-03-12T17:46:30.558Z,8.73
2023-03-12T17:49:00.296Z,9.63
2023-03-12T17:51:27.942Z,9.80
2023-03-12T17:53:55.650Z,8.97
2023-03-12T17:56:23.359Z,11.37
2023-03-12T17:58:51.045Z,10.53
2023-03-12T18:01:18.752Z,10.27
2023-03-12T18:03:46.593Z,9.70
2023-03-12T18:06:15.812Z,9.57
2023-03-12T18:08:46.186Z,13.43
2023-03-12T18:11:13.921Z,21.30
2023-03-12T18:13:41.570Z,20.93
2023-03-12T18:16:10.449Z,12.33
2023-03-12T18:18:38.138Z,10.77
2023-03-12T18:21:06.295Z,11.03
2023-03-12T18:23:35.335Z,9.97
2023-03-12T18:26:03.618Z,8.63
2023-03-12T18:28:31.420Z,7.53
2023-03-12T18:30:59.625Z,8.00
2023-03-12T18:33:27.379Z,7.87
2023-03-12T18:35:56.324Z,8.27
2023-03-12T18:38:24.018Z,8.07
2023-03-12T18:40:53.722Z,9.10
2023-03-12T18:43:22.064Z,7.80
2023-03-12T18:45:50.827Z,10.43
2023-03-12T18:48:18.636Z,7.13
2023-03-12T18:50:46.291Z,6.90
2023-03-12T18:53:14.049Z,7.20
2023-03-12T18:55:42.093Z,8.70
2023-03-12T18:58:11.166Z,8.63
2023-03-12T19:00:39.052Z,9.80
2023-03-12T19:03:06.827Z,9.80
2023-03-12T19:05:35.061Z,9.00
2023-03-12T19:08:02.987Z,10.30
2023-03-12T19:10:30.743Z,7.77
2023-03-12T19:12:59.121Z,8.43
2023-03-12T19:15:28.765Z,7.17
2023-03-12T19:17:57.047Z,6.77
2023-03-12T19:20:25.010Z,6.80
2023-03-12T19:22:52.595Z,6.40
2023-03-12T19:25:20.596Z,6.07
2023-03-12T19:27:48.508Z,5.57
2023-03-12T19:30:16.702Z,5.50
2023-03-12T19:32:46.003Z,6.20
2023-03-12T19:35:15.181Z,5.07
2023-03-12T19:37:42.897Z,6.47
2023-03-12T19:40:13.527Z,5.27
2023-03-12T19:42:41.578Z,5.83
2023-03-12T19:45:10.834Z,4.63
2023-03-12T19:47:38.529Z,5.57
2023-03-12T19:50:09.058Z,5.47
2023-03-12T19:52:36.851Z,5.97
2023-03-12T19:55:05.792Z,6.00
2023-03-12T19:57:35.320Z,4.97
2023-03-12T20:00:07.313Z,4.87
2023-03-12T20:02:35.275Z,6.10
2023-03-12T20:05:04.230Z,6.87
2023-03-12T20:07:33.561Z,5.10
2023-03-12T20:10:01.326Z,6.30
2023-03-12T20:12:29.116Z,5.20
2023-03-12T20:14:56.816Z,5.87
2023-03-12T20:17:24.673Z,6.93
2023-03-12T20:19:52.268Z,5.13
2023-03-12T20:22:20.105Z,6.33
2023-03-12T20:24:49.095Z,5.40
2023-03-12T20:27:17.854Z,6.82
2023-03-12T20:29:46.044Z,5.83
2023-03-12T20:32:14.073Z,6.05
2023-03-12T20:34:41.881Z,5.60
2023-03-12T20:37:09.548Z,4.93
2023-03-12T20:39:37.437Z,5.07
2023-03-12T20:42:06.713Z,5.90
2023-03-12T20:44:34.441Z,4.93
2023-03-12T20:47:02.429Z,5.65
2023-03-12T20:49:30.144Z,4.80
2023-03-12T20:51:58.604Z,4.70
2023-03-12T20:54:28.030Z,5.07
2023-03-12T20:56:55.762Z,4.15
2023-03-12T20:59:24.778Z,4.67
2023-03-12T21:01:52.371Z,6.20
2023-03-12T21:04:20.253Z,5.63
2023-03-12T21:06:51.494Z,4.88
2023-03-12T21:09:19.687Z,5.18
2023-03-12T21:11:47.543Z,6.53
2023-03-12T21:14:15.178Z,4.55
2023-03-12T21:16:44.173Z,5.88
2023-03-12T21:19:11.930Z,5.93
2023-03-12T21:21:39.722Z,6.93
2023-03-12T21:24:08.460Z,6.30
2023-03-12T21:26:36.430Z,7.05
2023-03-12T21:29:04.874Z,7.60
2023-03-12T21:31:32.576Z,7.93
2023-03-12T21:34:02.436Z,8.13
2023-03-12T21:36:30.316Z,7.43
2023-03-12T21:38:58.148Z,7.27
2023-03-12T21:41:25.850Z,7.93
2023-03-12T21:43:53.648Z,7.70
2023-03-12T21:46:24.533Z,7.35
2023-03-12T21:48:53.814Z,6.55
2023-03-12T21:51:26.049Z,7.57
2023-03-12T21:53:55.272Z,6.80
2023-03-12T21:56:25.263Z,6.15
2023-03-12T21:58:53.515Z,6.70
2023-03-12T22:01:21.564Z,7.30
2023-03-12T22:03:49.315Z,7.03
2023-03-12T22:06:17.082Z,6.63
2023-03-12T22:08:48.000Z,6.45
2023-03-12T22:11:16.584Z,5.90
2023-03-12T22:13:44.496Z,6.60
2023-03-12T22:16:14.089Z,4.65
2023-03-12T22:18:44.021Z,4.07
2023-03-12T22:21:16.154Z,4.60
2023-03-12T22:23:43.889Z,4.30
2023-03-12T22:26:12.978Z,5.25
2023-03-12T22:28:40.941Z,3.33
2023-03-12T22:31:09.645Z,3.03
2023-03-12T22:33:37.685Z,3.97
2023-03-12T22:36:07.830Z,3.45
2023-03-12T22:38:36.956Z,3.43
2023-03-12T22:41:18.194Z,4.22
2023-03-12T22:43:46.955Z,4.30
2023-03-12T22:46:16.857Z,2.97
2023-03-12T22:48:44.840Z,2.33
2023-03-12T22:51:13.937Z,2.40
2023-03-12T22:53:41.655Z,2.67
2023-03-12T22:56:11.314Z,3.37
2023-03-12T22:58:43.447Z,4.03
2023-03-12T23:01:12.540Z,2.83
2023-03-12T23:03:41.827Z,3.92
2023-03-12T23:06:10.337Z,3.38
2023-03-12T23:08:38.769Z,3.65
2023-03-12T23:11:07.641Z,3.92
2023-03-12T23:13:37.425Z,2.97
2023-03-12T23:16:11.549Z,2.38
2023-03-12T23:18:39.601Z,2.03
2023-03-12T23:21:09.244Z,3.55
2023-03-12T23:23:39.320Z,3.15
2023-03-12T23:26:09.193Z,2.05
2023-03-12T23:28:36.861Z,2.67
2023-03-12T23:31:07.691Z,2.22
2023-03-12T23:33:37.503Z,1.40
2023-03-12T23:36:08.045Z,2.75
2023-03-12T23:38:37.659Z,2.65
2023-03-12T23:41:07.795Z,2.00
2023-03-12T23:43:36.793Z,2.60
2023-03-12T23:46:06.476Z,3.30
2023-03-12T23:48:35.770Z,3.35
2023-03-12T23:51:12.371Z,2.92
2023-03-12T23:53:42.081Z,3.30
2023-03-12T23:56:12.159Z,3.35
2023-03-12T23:58:39.963Z,2.03
